Lakeside, Texas
Current Conditions -  °F | °C
As of 7:52 AM on Friday 28 Nov 2014 (Local Time) from KNFW Reporting Station
Clear Clear  
Wind Chill: 42°   Ceiling: Unl
Heat Index: 47°   Visibility: 10mi
Dew Point: 34°   Wind: 10mph
Humidity: 61%   Direction: 180°S
Pressure: 30.27"   Gusts: NA
Location:  32.8392°N, 97.4646°W
Report Text: KNFW 281352Z 18009KT 10SM CLR 08/01 A3027 RMK AO2 SLP230 T00830011
Loading
Personal Weather Stations






























Interactive Weather Map New forecast layout! Learn more

10-Day Weather Forecast

Advertisements
Track Severe Weather on mobile